createdAt,value
2019-06-10T00:00:22.824Z,22.70
2019-06-10T00:02:50.878Z,22.60
2019-06-10T00:05:18.673Z,22.70
2019-06-10T00:07:46.268Z,22.60
2019-06-10T00:10:14.609Z,22.50
2019-06-10T00:12:42.374Z,22.50
2019-06-10T00:15:10.832Z,22.50
2019-06-10T00:17:53.222Z,22.40
2019-06-10T00:20:08.370Z,22.40
2019-06-10T00:22:35.669Z,22.30
2019-06-10T00:25:06.776Z,22.30
2019-06-10T00:27:34.369Z,22.20
2019-06-10T00:30:04.305Z,22.20
2019-06-10T00:32:32.030Z,22.30
2019-06-10T00:35:01.935Z,22.30
2019-06-10T00:37:31.375Z,22.40
2019-06-10T00:39:59.916Z,22.40
2019-06-10T00:42:27.914Z,22.40
2019-06-10T00:44:55.899Z,22.50
2019-06-10T00:47:23.633Z,22.40
2019-06-10T00:49:51.547Z,22.20
2019-06-10T00:52:21.210Z,22.20
2019-06-10T00:54:48.889Z,22.20
2019-06-10T00:57:16.428Z,22.10
2019-06-10T00:59:44.059Z,22.00
2019-06-10T01:02:14.225Z,22.00
2019-06-10T01:04:40.853Z,21.90
2019-06-10T01:07:08.588Z,21.90
2019-06-10T01:09:36.889Z,21.80
2019-06-10T01:12:04.843Z,21.90
2019-06-10T01:14:32.514Z,22.00
2019-06-10T01:17:01.289Z,22.00
2019-06-10T01:19:30.959Z,22.00
2019-06-10T01:21:58.334Z,22.10
2019-06-10T01:24:25.590Z,22.00
2019-06-10T01:26:52.878Z,22.10
2019-06-10T01:29:21.041Z,22.10
2019-06-10T01:31:51.062Z,22.00
2019-06-10T01:34:18.432Z,21.80
2019-06-10T01:36:45.939Z,21.90
2019-06-10T01:39:14.823Z,22.00
2019-06-10T01:41:42.639Z,22.00
2019-06-10T01:44:11.533Z,22.30
2019-06-10T01:46:41.056Z,22.20
2019-06-10T01:49:11.578Z,22.10
2019-06-10T01:51:41.036Z,22.20
2019-06-10T01:54:07.974Z,22.30
2019-06-10T01:56:35.245Z,22.30
2019-06-10T01:59:02.699Z,22.30
2019-06-10T02:01:32.150Z,22.10
2019-06-10T02:04:00.902Z,22.20
2019-06-10T02:06:28.464Z,22.20
2019-06-10T02:09:05.221Z,22.30
2019-06-10T02:11:34.470Z,22.50
2019-06-10T02:14:03.540Z,22.70
2019-06-10T02:16:32.511Z,22.80
2019-06-10T02:19:03.993Z,22.70
2019-06-10T02:21:31.139Z,22.80
2019-06-10T02:24:00.883Z,22.80
2019-06-10T02:26:30.740Z,22.90
2019-06-10T02:28:57.568Z,22.80
2019-06-10T02:31:30.459Z,22.70
2019-06-10T02:33:54.343Z,22.70
2019-06-10T02:36:30.837Z,22.60
2019-06-10T02:38:53.914Z,22.40
2019-06-10T02:41:28.638Z,22.30
2019-06-10T02:43:53.172Z,22.20
2019-06-10T02:46:23.415Z,22.10
2019-06-10T02:48:48.741Z,22.30
2019-06-10T02:51:18.164Z,22.30
2019-06-10T02:53:45.526Z,22.30
2019-06-10T02:56:14.644Z,22.20
2019-06-10T02:58:44.881Z,22.20
2019-06-10T03:01:14.708Z,22.20
2019-06-10T03:03:48.135Z,22.20
2019-06-10T03:06:13.866Z,22.10
2019-06-10T03:08:39.290Z,21.90
2019-06-10T03:11:06.544Z,21.80
2019-06-10T03:13:34.084Z,22.00
2019-06-10T03:16:15.742Z,21.90
2019-06-10T03:18:43.587Z,21.80
2019-06-10T03:21:12.419Z,21.70
2019-06-10T03:23:39.700Z,21.70
2019-06-10T03:26:06.989Z,21.60
2019-06-10T03:28:34.514Z,21.60
2019-06-10T03:31:05.606Z,21.60
2019-06-10T03:33:41.119Z,21.60
2019-06-10T03:36:03.242Z,21.70
2019-06-10T03:38:32.498Z,21.70
2019-06-10T03:40:59.668Z,21.90
2019-06-10T03:43:27.897Z,22.00
2019-06-10T03:45:55.679Z,22.00
2019-06-10T03:48:24.119Z,22.30
2019-06-10T03:50:52.542Z,22.10
2019-06-10T03:53:19.819Z,22.20
2019-06-10T03:55:47.574Z,22.60
2019-06-10T03:58:15.025Z,22.90
2019-06-10T04:00:43.024Z,23.40
2019-06-10T04:03:12.154Z,23.60
2019-06-10T04:05:42.164Z,23.40
2019-06-10T04:08:09.483Z,23.50
2019-06-10T04:10:36.704Z,23.50
2019-06-10T04:13:04.318Z,23.70
2019-06-10T04:15:32.595Z,23.80
2019-06-10T04:17:59.982Z,23.80
2019-06-10T04:20:29.440Z,23.80
2019-06-10T04:22:56.994Z,24.10
2019-06-10T04:25:26.654Z,24.30
2019-06-10T04:27:53.619Z,24.70
2019-06-10T04:30:24.340Z,25.20
2019-06-10T04:32:52.873Z,25.90
2019-06-10T04:35:23.047Z,26.30
2019-06-10T04:37:52.018Z,26.50
2019-06-10T04:40:21.116Z,26.60
2019-06-10T04:42:48.449Z,26.50
2019-06-10T04:45:15.949Z,27.20
2019-06-10T04:47:43.327Z,27.80
2019-06-10T04:50:24.154Z,28.10
2019-06-10T04:52:42.909Z,28.40
2019-06-10T04:55:12.516Z,28.80
2019-06-10T04:57:39.646Z,28.90
2019-06-10T05:00:12.026Z,29.60
2019-06-10T05:02:37.852Z,30.40
2019-06-10T05:05:05.641Z,30.20
2019-06-10T05:07:36.825Z,29.60
2019-06-10T05:10:03.329Z,29.10
2019-06-10T05:12:32.600Z,29.00
2019-06-10T05:14:59.607Z,29.30
2019-06-10T05:17:28.957Z,29.70
2019-06-10T05:19:55.939Z,30.40
2019-06-10T05:22:25.398Z,31.00
2019-06-10T05:24:52.773Z,31.40
2019-06-10T05:27:22.421Z,31.60
2019-06-10T05:29:49.219Z,32.60
2019-06-10T05:32:16.484Z,33.20
2019-06-10T05:34:43.838Z,33.30
2019-06-10T05:37:12.103Z,33.00
2019-06-10T05:39:39.460Z,31.70
2019-06-10T05:42:06.691Z,31.30
2019-06-10T05:44:34.993Z,31.50
2019-06-10T05:47:03.591Z,32.40
2019-06-10T05:49:34.281Z,32.70
2019-06-10T05:52:02.015Z,32.70
2019-06-10T05:54:29.276Z,33.40
2019-06-10T05:56:56.497Z,33.70
2019-06-10T05:59:24.656Z,33.80
2019-06-10T06:01:53.929Z,33.60
2019-06-10T06:04:23.317Z,33.40
2019-06-10T06:06:53.019Z,33.40
2019-06-10T06:09:22.006Z,32.00
2019-06-10T06:11:48.668Z,32.00
2019-06-10T06:14:15.948Z,32.10
2019-06-10T06:16:43.603Z,31.60
2019-06-10T06:19:12.604Z,31.20
2019-06-10T06:21:44.517Z,31.10
2019-06-10T06:24:09.339Z,30.90
2019-06-10T06:26:38.379Z,30.50
2019-06-10T06:29:05.659Z,30.70
2019-06-10T06:31:34.908Z,30.50
2019-06-10T06:34:03.175Z,30.40
2019-06-10T06:36:31.270Z,30.60
2019-06-10T06:39:02.179Z,30.50
2019-06-10T06:41:29.476Z,30.70
2019-06-10T06:43:56.841Z,30.30
2019-06-10T06:46:24.556Z,30.60
2019-06-10T06:48:53.318Z,30.40
2019-06-10T06:51:36.381Z,30.30
2019-06-10T06:53:52.912Z,30.40
2019-06-10T06:56:19.853Z,30.20
2019-06-10T06:58:47.500Z,30.20
2019-06-10T07:01:14.987Z,29.90
2019-06-10T07:03:45.025Z,29.70
2019-06-10T07:06:14.477Z,29.60
2019-06-10T07:08:57.763Z,29.40
2019-06-10T07:11:15.336Z,29.20
2019-06-10T07:13:45.524Z,29.40
2019-06-10T07:16:13.149Z,29.60
2019-06-10T07:18:49.103Z,29.50
2019-06-10T07:21:13.118Z,29.10
2019-06-10T07:23:42.627Z,28.90
2019-06-10T07:26:09.806Z,28.80
2019-06-10T07:28:39.936Z,28.60
2019-06-10T07:31:19.976Z,28.80
2019-06-10T07:33:39.207Z,29.00
2019-06-10T07:36:05.604Z,29.10
2019-06-10T07:38:35.565Z,29.60
2019-06-10T07:41:02.797Z,29.70
2019-06-10T07:43:32.831Z,30.10
2019-06-10T07:45:59.541Z,29.90
2019-06-10T07:48:26.830Z,30.20
2019-06-10T07:50:54.612Z,30.20
2019-06-10T07:53:22.355Z,30.30
2019-06-10T07:55:49.873Z,30.50
2019-06-10T07:58:17.438Z,30.60
2019-06-10T08:00:48.104Z,30.70
2019-06-10T08:03:14.462Z,30.80
2019-06-10T08:05:44.374Z,31.10
2019-06-10T08:08:12.996Z,31.00
2019-06-10T08:10:44.730Z,31.10
2019-06-10T08:13:11.928Z,30.80
2019-06-10T08:15:39.744Z,30.80
2019-06-10T08:18:07.483Z,31.10
2019-06-10T08:20:47.926Z,31.30
2019-06-10T08:23:18.919Z,31.80
2019-06-10T08:25:53.304Z,32.10
2019-06-10T08:28:16.601Z,31.90
2019-06-10T08:30:46.110Z,31.70
2019-06-10T08:33:14.195Z,31.70
2019-06-10T08:35:53.627Z,31.30
2019-06-10T08:38:12.441Z,31.20
2019-06-10T08:40:40.663Z,31.50
2019-06-10T08:43:09.444Z,31.60
2019-06-10T08:45:36.947Z,31.40
2019-06-10T08:48:04.645Z,31.40
2019-06-10T08:50:33.738Z,31.70
2019-06-10T08:53:13.678Z,31.70
2019-06-10T08:55:33.464Z,31.80
2019-06-10T08:58:02.781Z,31.90
2019-06-10T09:00:33.265Z,32.00
2019-06-10T09:03:03.997Z,32.00
2019-06-10T09:05:32.433Z,32.00
2019-06-10T09:08:02.604Z,32.30
2019-06-10T09:10:29.719Z,32.40
2019-06-10T09:12:57.253Z,32.70
2019-06-10T09:15:24.484Z,32.40
2019-06-10T09:17:55.319Z,32.40
2019-06-10T09:20:23.026Z,32.60
2019-06-10T09:23:13.336Z,32.80
2019-06-10T09:25:22.570Z,32.80
2019-06-10T09:27:54.201Z,33.00
2019-06-10T09:30:22.749Z,33.00
2019-06-10T09:32:53.847Z,32.90
2019-06-10T09:35:19.463Z,33.20
2019-06-10T09:37:50.015Z,33.30
2019-06-10T09:40:18.342Z,33.20
2019-06-10T09:42:48.107Z,33.40
2019-06-10T09:45:17.724Z,33.40
2019-06-10T09:47:49.070Z,33.60
2019-06-10T09:50:15.331Z,33.60
2019-06-10T09:52:47.550Z,33.80
2019-06-10T09:55:12.897Z,34.10
2019-06-10T09:57:43.718Z,34.10
2019-06-10T10:00:14.482Z,34.10
2019-06-10T10:02:47.707Z,33.90
2019-06-10T10:05:12.240Z,34.10
2019-06-10T10:07:42.162Z,34.30
2019-06-10T10:10:12.883Z,34.20
2019-06-10T10:12:41.717Z,34.40
2019-06-10T10:15:26.447Z,34.30
2019-06-10T10:17:42.756Z,34.30
2019-06-10T10:20:09.184Z,34.00
2019-06-10T10:22:36.688Z,34.00
2019-06-10T10:25:07.314Z,34.10
2019-06-10T10:27:34.733Z,34.30
2019-06-10T10:30:05.875Z,34.30
2019-06-10T10:32:33.475Z,34.60
2019-06-10T10:35:03.069Z,34.70
2019-06-10T10:37:32.727Z,34.80
2019-06-10T10:39:59.610Z,34.50
2019-06-10T10:42:41.739Z,34.20
2019-06-10T10:44:59.076Z,34.30
2019-06-10T10:47:27.730Z,34.10
2019-06-10T10:49:57.097Z,34.50
2019-06-10T10:52:24.328Z,34.50
2019-06-10T10:54:54.303Z,34.50
2019-06-10T10:57:23.177Z,34.50
2019-06-10T10:59:53.966Z,34.40
2019-06-10T11:02:22.669Z,34.20
2019-06-10T11:04:50.006Z,34.60
2019-06-10T11:07:17.477Z,34.10
2019-06-10T11:09:46.335Z,34.70
2019-06-10T11:12:15.384Z,34.80
2019-06-10T11:14:44.885Z,35.00
2019-06-10T11:17:12.337Z,35.10
2019-06-10T11:19:39.808Z,35.30
2019-06-10T11:22:07.329Z,35.60
2019-06-10T11:24:40.877Z,35.30
2019-06-10T11:27:04.290Z,35.50
2019-06-10T11:29:32.953Z,35.80
2019-06-10T11:32:02.559Z,36.00
2019-06-10T11:34:29.650Z,35.70
2019-06-10T11:36:58.218Z,36.00
2019-06-10T11:39:25.940Z,35.80
2019-06-10T11:41:56.019Z,35.80
2019-06-10T11:44:22.964Z,36.10
2019-06-10T11:46:53.652Z,36.20
2019-06-10T11:49:20.012Z,35.90
2019-06-10T11:51:47.300Z,36.00
2019-06-10T11:54:14.699Z,35.80
2019-06-10T11:56:42.306Z,35.60
2019-06-10T11:59:10.323Z,35.30
2019-06-10T12:01:39.073Z,35.10
2019-06-10T12:04:06.479Z,35.10
2019-06-10T12:06:34.097Z,35.10
2019-06-10T12:09:02.931Z,35.10
2019-06-10T12:11:31.369Z,35.20
2019-06-10T12:14:03.951Z,35.20
2019-06-10T12:18:58.975Z,34.90
2019-06-10T12:21:27.481Z,35.00
2019-06-10T12:24:00.469Z,35.10
2019-06-10T12:26:25.203Z,34.90
2019-06-10T12:28:54.522Z,34.90
2019-06-10T12:31:23.204Z,35.00
2019-06-10T12:33:53.406Z,34.90
2019-06-10T12:36:20.025Z,34.60
2019-06-10T12:38:47.485Z,34.60
2019-06-10T12:41:14.925Z,34.40
2019-06-10T12:43:43.332Z,35.10
2019-06-10T12:46:12.791Z,34.80
2019-06-10T12:48:42.618Z,35.20
2019-06-10T12:51:10.154Z,35.50
2019-06-10T12:53:38.105Z,35.50
2019-06-10T12:56:10.560Z,35.40
2019-06-10T12:58:34.662Z,35.60
2019-06-10T13:01:04.495Z,35.40
2019-06-10T13:03:33.537Z,35.20
2019-06-10T13:06:06.702Z,35.40
2019-06-10T13:08:34.269Z,35.60
2019-06-10T13:11:02.020Z,35.60
2019-06-10T13:13:29.811Z,35.30
2019-06-10T13:15:58.129Z,35.30
2019-06-10T13:18:25.894Z,35.20
2019-06-10T13:20:53.991Z,35.20
2019-06-10T13:23:30.505Z,35.10
2019-06-10T13:25:57.305Z,35.00
2019-06-10T13:28:22.287Z,35.00
2019-06-10T13:30:49.521Z,35.10
2019-06-10T13:33:17.083Z,35.30
2019-06-10T13:35:44.538Z,35.20
2019-06-10T13:38:11.992Z,35.60
2019-06-10T13:40:39.312Z,35.60
2019-06-10T13:43:08.019Z,35.50
2019-06-10T13:45:35.481Z,35.70
2019-06-10T13:48:07.799Z,35.80
2019-06-10T13:50:32.984Z,35.60
2019-06-10T13:53:02.857Z,35.40
2019-06-10T13:55:29.898Z,35.20
2019-06-10T13:57:57.268Z,35.10
2019-06-10T14:00:40.359Z,35.00
2019-06-10T14:02:54.639Z,34.90
2019-06-10T14:05:22.591Z,34.60
2019-06-10T14:07:52.117Z,35.10
2019-06-10T14:10:19.388Z,35.20
2019-06-10T14:12:48.987Z,35.30
2019-06-10T14:15:17.319Z,35.20
2019-06-10T14:17:45.527Z,35.20
2019-06-10T14:20:15.481Z,35.60
2019-06-10T14:22:43.362Z,36.00
2019-06-10T14:25:12.337Z,35.60
2019-06-10T14:27:42.515Z,35.60
2019-06-10T14:30:14.133Z,35.80
2019-06-10T14:32:42.560Z,35.80
2019-06-10T14:35:11.888Z,35.60
2019-06-10T14:37:39.525Z,35.30
2019-06-10T14:40:08.976Z,35.40
2019-06-10T14:42:37.458Z,35.30
2019-06-10T14:45:06.709Z,35.50
2019-06-10T14:47:34.477Z,35.50
2019-06-10T14:50:03.296Z,35.40
2019-06-10T14:52:32.061Z,35.40
2019-06-10T14:55:02.412Z,35.50
2019-06-10T14:57:28.757Z,35.40
2019-06-10T14:59:56.071Z,35.20
2019-06-10T15:02:23.538Z,35.00
2019-06-10T15:04:53.012Z,35.10
2019-06-10T15:07:20.952Z,35.00
2019-06-10T15:09:49.644Z,34.60
2019-06-10T15:12:17.490Z,34.80
2019-06-10T15:14:44.966Z,34.90
2019-06-10T15:17:12.538Z,34.80
2019-06-10T15:19:42.400Z,34.60
2019-06-10T15:22:10.082Z,34.80
2019-06-10T15:24:38.908Z,34.90
2019-06-10T15:27:14.276Z,34.60
2019-06-10T15:29:36.446Z,34.70
2019-06-10T15:32:14.630Z,34.80
2019-06-10T15:34:33.426Z,35.10
2019-06-10T15:37:02.830Z,34.90
2019-06-10T15:39:33.016Z,34.90
2019-06-10T15:41:59.881Z,34.90
2019-06-10T15:44:47.695Z,34.90
2019-06-10T15:46:56.852Z,34.70
2019-06-10T15:49:26.211Z,34.70
2019-06-10T15:51:53.604Z,34.90
2019-06-10T15:54:25.083Z,34.70
2019-06-10T15:56:56.239Z,34.80
2019-06-10T15:59:19.856Z,34.70
2019-06-10T16:01:47.318Z,34.80
2019-06-10T16:04:17.250Z,34.80
2019-06-10T16:06:44.173Z,35.30
2019-06-10T16:09:13.432Z,35.10
2019-06-10T16:11:43.432Z,35.20
2019-06-10T16:14:10.293Z,35.10
2019-06-10T16:16:37.813Z,34.90
2019-06-10T16:19:05.140Z,35.20
2019-06-10T16:21:32.599Z,35.10
2019-06-10T16:24:06.493Z,34.90
2019-06-10T16:26:35.923Z,34.90
2019-06-10T16:29:03.512Z,34.60
2019-06-10T16:31:30.819Z,34.50
2019-06-10T16:33:58.022Z,34.50
2019-06-10T16:36:27.545Z,34.40
2019-06-10T16:38:56.075Z,34.50
2019-06-10T16:41:26.074Z,34.30
2019-06-10T16:43:52.596Z,34.60
2019-06-10T16:46:20.341Z,34.60
2019-06-10T16:48:47.919Z,34.90
2019-06-10T16:51:15.375Z,35.00
2019-06-10T16:53:42.768Z,34.60
2019-06-10T16:56:12.010Z,34.80
2019-06-10T16:58:39.365Z,34.90
2019-06-10T17:01:06.904Z,34.50
2019-06-10T17:03:34.407Z,34.30
2019-06-10T17:06:03.232Z,34.00
2019-06-10T17:08:33.531Z,34.00
2019-06-10T17:11:03.079Z,34.20
2019-06-10T17:13:30.372Z,34.20
2019-06-10T17:15:57.962Z,34.30
2019-06-10T17:18:26.588Z,34.50
2019-06-10T17:20:54.675Z,34.60
2019-06-10T17:23:27.130Z,34.80
2019-06-10T17:25:55.949Z,34.70
2019-06-10T17:28:28.894Z,34.50
2019-06-10T17:30:56.015Z,35.00
2019-06-10T17:33:25.793Z,34.80
2019-06-10T17:35:52.558Z,34.60
2019-06-10T17:38:20.544Z,34.50
2019-06-10T17:40:48.508Z,34.60
2019-06-10T17:43:16.023Z,34.60
2019-06-10T17:45:44.063Z,34.70
2019-06-10T17:48:12.943Z,34.60
2019-06-10T17:50:42.785Z,34.40
2019-06-10T17:53:12.554Z,34.20
2019-06-10T17:55:39.578Z,34.00
2019-06-10T17:58:06.729Z,33.80
2019-06-10T18:00:36.246Z,33.60
2019-06-10T18:03:03.789Z,33.50
2019-06-10T18:05:31.381Z,33.10
2019-06-10T18:07:58.632Z,33.20
2019-06-10T18:10:25.930Z,33.00
2019-06-10T18:12:53.173Z,33.00
2019-06-10T18:15:22.228Z,32.90
2019-06-10T18:17:49.481Z,32.80
2019-06-10T18:20:19.036Z,32.60
2019-06-10T18:22:46.371Z,32.60
2019-06-10T18:25:13.917Z,32.50
2019-06-10T18:27:41.680Z,32.50
2019-06-10T18:30:11.480Z,32.30
2019-06-10T18:32:38.655Z,32.30
2019-06-10T18:35:07.406Z,32.10
2019-06-10T18:37:36.002Z,32.20
2019-06-10T18:40:06.409Z,32.00
2019-06-10T18:42:35.848Z,32.00
2019-06-10T18:45:07.804Z,31.80
2019-06-10T18:47:36.078Z,32.00
2019-06-10T18:50:08.600Z,31.80
2019-06-10T18:52:35.922Z,31.70
2019-06-10T18:55:06.591Z,31.80
2019-06-10T18:57:36.172Z,31.80
2019-06-10T19:00:14.595Z,31.60
2019-06-10T19:02:42.536Z,31.80
2019-06-10T19:05:13.072Z,31.60
2019-06-10T19:07:42.889Z,31.70
2019-06-10T19:10:14.177Z,31.60
2019-06-10T19:12:42.495Z,31.50
2019-06-10T19:15:12.066Z,31.60
2019-06-10T19:17:41.610Z,31.50
2019-06-10T19:20:09.571Z,31.40
2019-06-10T19:22:37.912Z,31.40
2019-06-10T19:25:06.788Z,31.30
2019-06-10T19:27:36.459Z,31.20
2019-06-10T19:30:07.599Z,31.10
2019-06-10T19:32:36.771Z,31.00
2019-06-10T19:35:06.989Z,31.00
2019-06-10T19:37:36.141Z,31.00
2019-06-10T19:40:07.361Z,30.90
2019-06-10T19:42:35.994Z,30.80
2019-06-10T19:45:07.267Z,30.90
2019-06-10T19:47:36.288Z,30.90
2019-06-10T19:50:07.370Z,30.80
2019-06-10T19:52:35.269Z,30.80
2019-06-10T19:55:07.235Z,30.80
2019-06-10T19:57:35.929Z,30.60
2019-06-10T20:00:12.309Z,29.60
2019-06-10T20:02:37.653Z,29.70
2019-06-10T20:05:07.246Z,29.80
2019-06-10T20:07:35.825Z,29.90
2019-06-10T20:10:06.690Z,29.80
2019-06-10T20:12:34.385Z,29.50
2019-06-10T20:15:02.640Z,29.50
2019-06-10T20:17:32.702Z,29.60
2019-06-10T20:20:02.376Z,29.40
2019-06-10T20:22:29.338Z,29.30
2019-06-10T20:24:56.992Z,29.10
2019-06-10T20:27:24.956Z,29.20
2019-06-10T20:30:04.632Z,29.20
2019-06-10T20:32:22.678Z,29.00
2019-06-10T20:34:52.898Z,29.00
2019-06-10T20:37:22.454Z,28.90
2019-06-10T20:39:50.394Z,28.80
2019-06-10T20:42:18.407Z,28.70
2019-06-10T20:44:47.865Z,28.60
2019-06-10T20:47:15.390Z,28.60
2019-06-10T20:49:45.882Z,28.50
2019-06-10T20:52:14.843Z,28.50
2019-06-10T20:54:43.373Z,28.50
2019-06-10T20:57:12.125Z,28.40
2019-06-10T20:59:42.180Z,28.30
2019-06-10T21:02:09.585Z,28.20
2019-06-10T21:04:36.801Z,28.00
2019-06-10T21:07:05.327Z,28.10
2019-06-10T21:09:35.221Z,28.20
2019-06-10T21:12:02.778Z,28.00
2019-06-10T21:14:30.281Z,28.10
2019-06-10T21:16:57.936Z,28.10
2019-06-10T21:19:25.544Z,28.20
2019-06-10T21:21:54.674Z,27.90
2019-06-10T21:24:23.242Z,28.30
2019-06-10T21:26:54.305Z,28.30
2019-06-10T21:29:20.137Z,28.10
2019-06-10T21:31:49.916Z,28.10
2019-06-10T21:34:17.091Z,28.10
2019-06-10T21:36:45.290Z,28.00
2019-06-10T21:39:12.826Z,27.90
2019-06-10T21:41:42.234Z,27.90
2019-06-10T21:44:09.292Z,27.60
2019-06-10T21:46:36.984Z,27.50
2019-06-10T21:49:04.556Z,27.40
2019-06-10T21:51:34.596Z,27.40
2019-06-10T21:54:03.005Z,27.30
2019-06-10T21:56:32.617Z,27.30
2019-06-10T21:59:02.271Z,27.00
2019-06-10T22:01:29.795Z,27.00
2019-06-10T22:04:00.871Z,27.00
2019-06-10T22:06:27.170Z,26.90
2019-06-10T22:08:56.470Z,27.00
2019-06-10T22:11:24.296Z,26.80
2019-06-10T22:13:54.258Z,26.80
2019-06-10T22:16:22.610Z,26.70
2019-06-10T22:18:50.782Z,26.60
2019-06-10T22:21:18.731Z,26.60
2019-06-10T22:23:46.695Z,26.60
2019-06-10T22:26:14.761Z,26.50
2019-06-10T22:28:43.283Z,26.50
2019-06-10T22:31:19.086Z,26.40
2019-06-10T22:33:43.142Z,26.40
2019-06-10T22:36:12.956Z,26.30
2019-06-10T22:38:40.067Z,26.40
2019-06-10T22:41:07.491Z,26.30
2019-06-10T22:43:34.961Z,26.30
2019-06-10T22:46:04.032Z,26.30
2019-06-10T22:48:33.268Z,26.30
2019-06-10T22:51:00.729Z,26.20
2019-06-10T22:53:28.519Z,26.10
2019-06-10T22:55:57.512Z,25.90
2019-06-10T22:58:25.351Z,25.80
2019-06-10T23:00:56.219Z,25.70
2019-06-10T23:03:22.317Z,25.50
2019-06-10T23:05:50.325Z,25.40
2019-06-10T23:08:17.908Z,25.30
2019-06-10T23:10:45.466Z,25.20
2019-06-10T23:13:15.028Z,25.10
2019-06-10T23:15:42.862Z,25.00
2019-06-10T23:18:12.803Z,25.00
2019-06-10T23:20:42.503Z,24.90
2019-06-10T23:23:09.188Z,24.80
2019-06-10T23:25:36.451Z,24.90
2019-06-10T23:28:03.694Z,24.80
2019-06-10T23:30:32.997Z,24.70
2019-06-10T23:33:00.922Z,24.60
2019-06-10T23:35:28.516Z,24.60
2019-06-10T23:37:58.450Z,24.70
2019-06-10T23:40:25.087Z,24.70
2019-06-10T23:42:53.109Z,24.80
2019-06-10T23:45:22.367Z,24.80
2019-06-10T23:47:52.871Z,24.60
2019-06-10T23:50:19.556Z,24.50
2019-06-10T23:52:46.686Z,24.50
2019-06-10T23:55:14.820Z,24.50
2019-06-10T23:57:42.540Z,24.40
